Terminal Aerodrome Forecast
Issued by NWS

Home | Current Version | Previous Version | Text Only | Print | Product List | Glossary On
Versions: 1 2 3 4 5 6 7 8 9 10 11 12 13 14 15 16 17
666
FTUS43 KEAX 091720
TAFSTJ
TAF
KSTJ 091720Z 0918/1018 34018G28KT P6SM FEW025 SCT250
     FM100200 32008KT P6SM SCT050 SCT150
     FM101300 16008KT P6SM SCT030 BKN050=

USA.gov is the U.S. government's official web portal to all federal, state and local government web resources and services.